< < Back
Terminal Aerodrome Forecast


Current Version              Previous Versions:   1  2  3  4  5  6  7  8  9  

Terminal Aerodrome Forecast

875
FTUS42 KCHS 300520
TAFSAV
TAF
KSAV 300520Z 3006/3106 20004KT P6SM SCT050 BKN120 WS020/25035KT
     FM301400 32014G23KT P6SM SKC
     FM302100 31005KT P6SM SKC=



Latest METAR

038
SAUS80 KWBC 302000 CCA
MTRSAV
METAR KSAV 301953Z 31013G19KT 10SM CLR 16/M02 A3015 RMK AO2 SLP208
T01561017


USA.gov is the U.S. government's official web portal to all federal, state and local government web resources and services.